createdAt,value
2023-04-29T00:00:13.844Z,100017.64
2023-04-29T00:01:16.026Z,100019.45
2023-04-29T00:02:18.239Z,100018.60
2023-04-29T00:03:20.481Z,100023.94
2023-04-29T00:04:23.059Z,100022.23
2023-04-29T00:05:25.790Z,100023.08
2023-04-29T00:06:28.242Z,100024.90
2023-04-29T00:07:31.231Z,100022.38
2023-04-29T00:08:33.329Z,100027.70
2023-04-29T00:09:35.501Z,100023.23
2023-04-29T00:10:37.982Z,100023.34
2023-04-29T00:11:40.262Z,100022.38
2023-04-29T00:12:42.833Z,100019.70
2023-04-29T00:13:44.892Z,100018.86
2023-04-29T00:14:47.310Z,100017.19
2023-04-29T00:15:49.866Z,100011.00
2023-04-29T00:16:52.127Z,100010.15
2023-04-29T00:17:54.364Z,100011.96
2023-04-29T00:18:56.757Z,100011.11
2023-04-29T00:19:58.915Z,100011.25
2023-04-29T00:21:01.511Z,100007.73
2023-04-29T00:22:03.630Z,100006.89
2023-04-29T00:23:06.064Z,100007.88
2023-04-29T00:24:08.497Z,100015.03
2023-04-29T00:25:10.880Z,100013.33
2023-04-29T00:26:14.010Z,100015.98
2023-04-29T00:27:18.143Z,100021.32
2023-04-29T00:28:20.542Z,100013.33
2023-04-29T00:29:22.894Z,100008.92
2023-04-29T00:30:25.060Z,100014.39
2023-04-29T00:31:27.818Z,100011.73
2023-04-29T00:32:31.283Z,100017.06
2023-04-29T00:33:33.552Z,100016.21
2023-04-29T00:34:35.665Z,100013.55
2023-04-29T00:35:37.848Z,100014.54
2023-04-29T00:36:40.209Z,100012.84
2023-04-29T00:37:42.485Z,100019.02
2023-04-29T00:38:44.683Z,100015.50
2023-04-29T00:39:46.961Z,100011.13
2023-04-29T00:40:49.447Z,100015.61
2023-04-29T00:41:52.135Z,100020.13
2023-04-29T00:42:54.181Z,100010.42
2023-04-29T00:43:56.466Z,100015.76
2023-04-29T00:44:58.868Z,100012.23
2023-04-29T00:46:00.978Z,100009.72
2023-04-29T00:47:03.682Z,100015.05
2023-04-29T00:48:06.636Z,100006.20
2023-04-29T00:49:10.398Z,100002.68
2023-04-29T00:50:13.231Z,100005.34
2023-04-29T00:51:16.687Z,100007.16
2023-04-29T00:52:19.402Z,100003.67
2023-04-29T00:53:21.546Z,100007.30
2023-04-29T00:54:24.245Z,100001.12
2023-04-29T00:55:26.996Z,100015.30
2023-04-29T00:56:30.110Z,100010.93
2023-04-29T00:57:34.310Z,100007.41
2023-04-29T00:58:36.601Z,100015.41
2023-04-29T00:59:38.874Z,100010.08
2023-04-29T01:00:41.122Z,100017.26
2023-04-29T01:01:43.672Z,100019.92
2023-04-29T01:02:48.192Z,100020.89
2023-04-29T01:03:51.224Z,100017.37
2023-04-29T01:04:53.946Z,100018.36
2023-04-29T01:07:36.245Z,100016.61
2023-04-29T01:08:59.816Z,100021.53
2023-04-29T01:10:19.920Z,100023.95
2023-04-29T01:11:26.579Z,100025.62
2023-04-29T01:12:35.279Z,100028.42
2023-04-29T01:13:53.251Z,100027.72
2023-04-29T01:16:38.345Z,100020.63
2023-04-29T01:18:00.892Z,100032.84
2023-04-29T01:19:06.827Z,100030.03
2023-04-29T01:20:10.864Z,100030.98
2023-04-29T01:21:13.190Z,100030.03
2023-04-29T01:22:15.574Z,100030.28
2023-04-29T01:23:18.422Z,100031.13
2023-04-29T01:24:21.042Z,100033.09
2023-04-29T01:25:25.476Z,100033.91
2023-04-29T01:29:22.696Z,100024.70
2023-04-29T01:30:47.473Z,100031.30
2023-04-29T01:33:31.143Z,100034.25
2023-04-29T01:36:14.570Z,100032.70
2023-04-29T01:37:20.763Z,100033.36
2023-04-29T01:38:37.400Z,100031.41
2023-04-29T01:40:06.475Z,100039.41
2023-04-29T01:43:58.772Z,100039.52
2023-04-29T01:45:05.663Z,100046.08
2023-04-29T01:46:13.132Z,100040.64
2023-04-29T01:47:16.312Z,100054.69
2023-04-29T01:48:20.723Z,100044.88
2023-04-29T01:49:26.856Z,100045.84
2023-04-29T01:50:29.419Z,100051.16
2023-04-29T01:51:33.447Z,100051.16
2023-04-29T01:52:36.305Z,100041.61
2023-04-29T01:53:39.082Z,100054.79
2023-04-29T01:54:41.156Z,100052.27
2023-04-29T01:55:43.541Z,100054.22
2023-04-29T01:56:50.649Z,100050.56
2023-04-29T01:59:16.774Z,100046.19
2023-04-29T02:00:29.557Z,100053.85
2023-04-29T02:01:32.093Z,100053.85
2023-04-29T02:02:34.591Z,100049.38
2023-04-29T02:03:38.878Z,100056.41
2023-04-29T02:04:43.527Z,100046.71
2023-04-29T02:05:45.898Z,100051.08
2023-04-29T02:06:48.166Z,100056.52
2023-04-29T02:07:52.182Z,100054.70
2023-04-29T02:08:55.407Z,100054.70
2023-04-29T02:09:58.669Z,100058.33
2023-04-29T02:11:01.005Z,100058.33
2023-04-29T02:12:10.646Z,100057.48
2023-04-29T02:13:12.737Z,100060.28
2023-04-29T02:14:15.206Z,100054.95
2023-04-29T02:15:18.412Z,100056.05
2023-04-29T02:16:21.062Z,100058.71
2023-04-29T02:17:25.209Z,100057.86
2023-04-29T02:18:27.755Z,100054.34
2023-04-29T02:19:30.026Z,100057.14
2023-04-29T02:20:32.197Z,100052.67
2023-04-29T02:21:34.446Z,100055.33
2023-04-29T02:22:36.642Z,100052.78
2023-04-29T02:23:39.532Z,100055.58
2023-04-29T02:24:41.778Z,100059.09
2023-04-29T02:25:44.025Z,100060.91
2023-04-29T02:26:46.553Z,100058.23
2023-04-29T02:27:48.718Z,100062.82
2023-04-29T02:28:51.593Z,100065.48
2023-04-29T02:29:53.940Z,100070.81
2023-04-29T02:30:57.074Z,100070.81
2023-04-29T02:31:59.270Z,100074.57
2023-04-29T02:33:01.567Z,100074.57
2023-04-29T02:34:03.649Z,100073.75
2023-04-29T02:35:06.613Z,100072.90
2023-04-29T02:36:09.918Z,100074.70
2023-04-29T02:37:12.687Z,100072.05
2023-04-29T02:38:15.709Z,100069.38
2023-04-29T02:39:17.817Z,100075.80
2023-04-29T02:40:21.000Z,100066.96
2023-04-29T02:41:23.278Z,100070.48
2023-04-29T02:42:25.921Z,100066.11
2023-04-29T02:43:28.075Z,100078.57
2023-04-29T02:44:30.342Z,100074.09
2023-04-29T02:45:32.708Z,100070.58
2023-04-29T02:46:34.911Z,100080.41
2023-04-29T02:47:37.738Z,100081.37
2023-04-29T02:48:40.056Z,100082.33
2023-04-29T02:49:42.208Z,100078.84
2023-04-29T02:50:44.461Z,100083.31
2023-04-29T02:51:46.841Z,100081.61
2023-04-29T02:52:49.135Z,100086.94
2023-04-29T02:53:51.649Z,100089.73
2023-04-29T02:54:53.817Z,100090.55
2023-04-29T02:55:56.128Z,100086.22
2023-04-29T02:56:58.727Z,100090.69
2023-04-29T02:58:01.459Z,100096.02
2023-04-29T02:59:03.453Z,100096.16
2023-04-29T03:00:07.611Z,100100.63
2023-04-29T03:01:10.065Z,100099.77
2023-04-29T03:02:12.471Z,100101.48
2023-04-29T03:03:15.574Z,100099.77
2023-04-29T03:04:18.198Z,100104.14
2023-04-29T03:05:20.546Z,100105.09
2023-04-29T03:06:22.823Z,100104.14
2023-04-29T03:07:26.050Z,100105.09
2023-04-29T03:08:28.725Z,100097.96
2023-04-29T03:09:31.315Z,100105.09
2023-04-29T03:10:34.039Z,100108.61
2023-04-29T03:11:37.966Z,100106.80
2023-04-29T03:12:41.326Z,100107.63
2023-04-29T03:13:44.730Z,100108.61
2023-04-29T03:14:47.193Z,100114.05
2023-04-29T03:15:49.478Z,100111.37
2023-04-29T03:16:51.693Z,100105.09
2023-04-29T03:17:54.049Z,100108.72
2023-04-29T03:18:57.095Z,100113.09
2023-04-29T03:21:01.120Z,100112.13
2023-04-29T03:22:03.545Z,100113.80
2023-04-29T03:23:06.491Z,100119.13
2023-04-29T03:24:09.255Z,100119.13
2023-04-29T03:25:12.778Z,100121.80
2023-04-29T03:26:15.167Z,100126.16
2023-04-29T03:27:17.998Z,100124.45
2023-04-29T03:28:20.414Z,100127.12
2023-04-29T03:29:23.333Z,100129.68
2023-04-29T03:30:25.648Z,100129.68
2023-04-29T03:31:29.779Z,100125.31
2023-04-29T03:32:32.709Z,100131.48
2023-04-29T03:33:35.019Z,100127.02
2023-04-29T03:34:37.300Z,100131.48
2023-04-29T03:35:44.643Z,100131.35
2023-04-29T03:38:16.744Z,100127.84
2023-04-29T03:39:19.626Z,100133.53
2023-04-29T03:40:21.920Z,100134.25
2023-04-29T03:41:24.626Z,100134.15
2023-04-29T03:42:27.194Z,100138.48
2023-04-29T03:43:29.469Z,100139.34
2023-04-29T03:44:32.436Z,100134.02
2023-04-29T03:45:35.003Z,100128.69
2023-04-29T03:46:37.812Z,100133.16
2023-04-29T03:47:40.753Z,100130.39
2023-04-29T03:48:43.052Z,100132.20
2023-04-29T03:49:45.679Z,100132.20
2023-04-29T03:50:48.005Z,100143.81
2023-04-29T03:51:50.393Z,100131.35
2023-04-29T03:52:53.676Z,100142.00
2023-04-29T03:53:55.817Z,100135.83
2023-04-29T03:54:59.988Z,100147.33
2023-04-29T03:57:05.564Z,100141.16
2023-04-29T03:58:09.774Z,100144.67
2023-04-29T03:59:12.005Z,100142.00
2023-04-29T04:00:15.942Z,100141.16
2023-04-29T04:01:22.821Z,100139.34
2023-04-29T04:02:25.458Z,100148.32
2023-04-29T04:03:28.170Z,100142.00
2023-04-29T04:04:31.665Z,100149.04
2023-04-29T04:05:34.347Z,100141.16
2023-04-29T04:06:38.431Z,100143.81
2023-04-29T04:07:40.712Z,100143.81
2023-04-29T04:09:01.648Z,100140.33
2023-04-29T04:10:06.174Z,100150.84
2023-04-29T04:11:08.325Z,100156.17
2023-04-29T04:12:12.204Z,100150.84
2023-04-29T04:13:16.447Z,100157.12
2023-04-29T04:14:18.783Z,100157.12
2023-04-29T04:15:22.077Z,100158.97
2023-04-29T04:16:24.879Z,100157.02
2023-04-29T04:17:27.543Z,100164.06
2023-04-29T04:18:29.761Z,100153.41
2023-04-29T04:19:32.109Z,100165.73
2023-04-29T04:20:38.478Z,100163.20
2023-04-29T04:21:41.322Z,100161.39
2023-04-29T04:22:45.283Z,100164.06
2023-04-29T04:23:58.396Z,100165.73
2023-04-29T04:25:00.868Z,100164.78
2023-04-29T04:26:03.142Z,100163.92
2023-04-29T04:27:20.841Z,100162.12
2023-04-29T04:28:24.448Z,100168.30
2023-04-29T04:29:33.178Z,100164.78
2023-04-29T04:30:37.268Z,100167.30
2023-04-29T04:31:40.870Z,100161.98
2023-04-29T04:32:43.515Z,100164.64
2023-04-29T04:33:45.741Z,100166.34
2023-04-29T04:34:48.800Z,100167.07
2023-04-29T04:35:51.098Z,100167.92
2023-04-29T04:36:53.265Z,100170.59
2023-04-29T04:37:57.813Z,100165.27
2023-04-29T04:39:00.446Z,100165.13
2023-04-29T04:40:03.039Z,100173.02
2023-04-29T04:41:09.894Z,100172.02
2023-04-29T04:42:14.419Z,100170.11
2023-04-29T04:43:17.161Z,100165.64
2023-04-29T04:44:19.336Z,100167.31
2023-04-29T04:45:32.405Z,100166.36
2023-04-29T04:46:35.166Z,100158.36
2023-04-29T04:47:40.531Z,100171.45
2023-04-29T04:48:44.654Z,100164.30
2023-04-29T04:49:48.323Z,100167.80
2023-04-29T04:50:51.126Z,100171.31
2023-04-29T04:51:53.984Z,100168.55
2023-04-29T04:52:56.885Z,100171.07
2023-04-29T04:54:01.065Z,100167.45
2023-04-29T04:55:05.132Z,100170.97
2023-04-29T04:56:09.549Z,100168.03
2023-04-29T04:57:12.464Z,100164.41
2023-04-29T04:58:14.718Z,100174.11
2023-04-29T04:59:17.374Z,100171.20
2023-04-29T05:00:19.784Z,100170.21
2023-04-29T05:01:22.252Z,100166.59
2023-04-29T05:02:25.085Z,100172.64
2023-04-29T05:03:28.087Z,100157.37
2023-04-29T05:04:30.648Z,100159.92
2023-04-29T05:05:33.524Z,100166.69
2023-04-29T05:06:35.721Z,100167.30
2023-04-29T05:07:37.906Z,100173.81
2023-04-29T05:08:40.569Z,100170.54
2023-04-29T05:09:43.760Z,100166.27
2023-04-29T05:10:45.946Z,100159.33
2023-04-29T05:11:48.499Z,100162.32
2023-04-29T05:12:52.937Z,100156.95
2023-04-29T05:13:55.581Z,100150.05
2023-04-29T05:14:57.836Z,100148.59
2023-04-29T05:16:06.512Z,100150.08
2023-04-29T05:17:09.371Z,100139.63
2023-04-29T05:18:13.206Z,100150.93
2023-04-29T05:19:16.215Z,100144.96
2023-04-29T05:20:18.860Z,100153.05
2023-04-29T05:21:21.449Z,100144.59
2023-04-29T05:22:24.314Z,100146.80
2023-04-29T05:23:26.599Z,100139.77
2023-04-29T05:24:28.920Z,100141.97
2023-04-29T05:25:31.614Z,100146.53
2023-04-29T05:26:34.507Z,100140.67
2023-04-29T05:27:37.977Z,100143.54
2023-04-29T05:28:41.286Z,100143.73
2023-04-29T05:30:55.187Z,100135.72
2023-04-29T05:31:57.540Z,100142.53
2023-04-29T05:32:59.673Z,100143.44
2023-04-29T05:34:02.922Z,100148.41
2023-04-29T05:35:07.534Z,100147.80
2023-04-29T05:36:11.216Z,100153.91
2023-04-29T05:37:13.524Z,100152.75
2023-04-29T05:38:18.618Z,100146.84
2023-04-29T05:39:26.195Z,100150.15
2023-04-29T05:40:30.359Z,100145.34
2023-04-29T05:41:34.913Z,100152.91
2023-04-29T05:42:44.608Z,100145.59
2023-04-29T05:43:47.275Z,100148.23
2023-04-29T05:44:50.959Z,100152.40
2023-04-29T05:45:53.270Z,100155.56
2023-04-29T05:46:56.030Z,100149.72
2023-04-29T05:47:58.793Z,100148.48
2023-04-29T05:49:01.180Z,100149.53
2023-04-29T05:50:03.959Z,100154.70
2023-04-29T05:51:06.707Z,100157.69
2023-04-29T05:52:09.064Z,100151.80
2023-04-29T05:53:13.273Z,100155.80
2023-04-29T05:54:17.179Z,100149.56
2023-04-29T05:55:21.181Z,100152.92
2023-04-29T05:56:24.606Z,100150.89
2023-04-29T05:57:27.172Z,100146.11
2023-04-29T05:58:29.361Z,100158.66
2023-04-29T05:59:32.388Z,100148.95
2023-04-29T06:00:35.938Z,100159.16
2023-04-29T06:01:40.161Z,100163.58
2023-04-29T06:02:57.513Z,100163.81
2023-04-29T06:03:49.560Z,100163.97
2023-04-29T06:04:59.826Z,100172.09
2023-04-29T06:06:16.357Z,100173.80
2023-04-29T06:07:24.063Z,100167.38
2023-04-29T06:08:29.756Z,100173.60
2023-04-29T06:09:39.934Z,100168.02
2023-04-29T06:10:42.269Z,100170.50
2023-04-29T06:11:45.976Z,100163.72
2023-04-29T06:12:48.720Z,100165.38
2023-04-29T06:13:51.075Z,100168.36
2023-04-29T06:14:53.307Z,100161.43
2023-04-29T06:15:56.134Z,100166.25
2023-04-29T06:16:59.428Z,100168.05
2023-04-29T06:18:01.889Z,100172.83
2023-04-29T06:19:04.636Z,100171.08
2023-04-29T06:20:09.049Z,100172.91
2023-04-29T06:21:14.540Z,100171.83
2023-04-29T06:22:17.787Z,100173.79
2023-04-29T06:23:22.343Z,100175.57
2023-04-29T06:24:25.061Z,100172.99
2023-04-29T06:25:28.643Z,100184.50
2023-04-29T06:26:31.479Z,100174.39
2023-04-29T06:27:34.490Z,100179.36
2023-04-29T06:28:37.775Z,100184.06
2023-04-29T06:29:40.702Z,100188.89
2023-04-29T06:30:43.316Z,100181.30
2023-04-29T06:33:05.205Z,100163.72
2023-04-29T06:34:08.235Z,100179.12
2023-04-29T06:35:12.321Z,100172.89
2023-04-29T06:36:18.954Z,100174.89
2023-04-29T06:37:23.738Z,100176.90
2023-04-29T06:39:50.687Z,100174.42
2023-04-29T06:41:00.939Z,100184.33
2023-04-29T06:42:22.816Z,100187.86
2023-04-29T06:43:44.066Z,100180.80
2023-04-29T06:45:06.425Z,100188.03
2023-04-29T06:46:14.954Z,100183.78
2023-04-29T06:47:25.855Z,100180.41
2023-04-29T06:48:30.308Z,100189.61
2023-04-29T06:49:32.592Z,100179.04
2023-04-29T06:50:34.826Z,100185.56
2023-04-29T06:51:37.870Z,100189.36
2023-04-29T06:52:40.689Z,100178.63
2023-04-29T06:53:43.021Z,100179.77
2023-04-29T06:54:45.502Z,100178.95
2023-04-29T06:55:47.770Z,100182.63
2023-04-29T06:56:50.116Z,100170.35
2023-04-29T06:57:56.188Z,100177.55
2023-04-29T06:58:58.829Z,100176.19
2023-04-29T07:00:01.144Z,100175.63
2023-04-29T07:01:03.489Z,100168.02
2023-04-29T07:02:06.118Z,100179.08
2023-04-29T07:03:08.895Z,100165.95
2023-04-29T07:04:11.519Z,100179.66
2023-04-29T07:05:15.815Z,100178.42
2023-04-29T07:06:19.063Z,100185.91
2023-04-29T07:07:21.848Z,100180.84
2023-04-29T07:08:24.040Z,100178.33
2023-04-29T07:09:28.054Z,100178.33
2023-04-29T07:10:30.354Z,100169.13
2023-04-29T07:11:32.536Z,100179.56
2023-04-29T07:12:34.675Z,100185.88
2023-04-29T07:13:36.833Z,100176.91
2023-04-29T07:14:39.331Z,100174.87
2023-04-29T07:15:41.389Z,100188.77
2023-04-29T07:16:43.773Z,100183.86
2023-04-29T07:17:46.312Z,100183.33
2023-04-29T07:18:49.178Z,100186.37
2023-04-29T07:19:51.613Z,100188.34
2023-04-29T07:20:54.141Z,100173.50
2023-04-29T07:21:56.691Z,100196.14
2023-04-29T07:22:59.110Z,100183.98
2023-04-29T07:24:02.856Z,100189.77
2023-04-29T07:25:05.393Z,100189.22
2023-04-29T07:26:10.243Z,100182.53
2023-04-29T07:27:12.681Z,100176.73
2023-04-29T07:28:14.759Z,100184.34
2023-04-29T07:29:17.055Z,100173.95
2023-04-29T07:30:19.617Z,100174.50
2023-04-29T07:31:21.880Z,100182.09
2023-04-29T07:32:37.655Z,100178.27
2023-04-29T07:33:41.037Z,100182.53
2023-04-29T07:34:45.544Z,100176.48
2023-04-29T07:35:47.770Z,100185.25
2023-04-29T07:36:50.564Z,100183.22
2023-04-29T07:37:53.299Z,100179.34
2023-04-29T07:38:55.489Z,100184.57
2023-04-29T07:39:57.768Z,100179.83
2023-04-29T07:41:00.682Z,100177.78
2023-04-29T07:42:03.007Z,100171.41
2023-04-29T07:43:07.417Z,100174.94
2023-04-29T07:44:09.512Z,100178.45
2023-04-29T07:45:11.796Z,100175.55
2023-04-29T07:46:14.251Z,100172.66
2023-04-29T07:47:16.557Z,100171.78
2023-04-29T07:48:18.741Z,100172.41
2023-04-29T07:49:22.552Z,100171.17
2023-04-29T07:50:24.997Z,100163.22
2023-04-29T07:51:28.202Z,100163.87
2023-04-29T07:52:30.440Z,100170.92
2023-04-29T07:53:33.083Z,100171.72
2023-04-29T07:54:36.154Z,100172.31
2023-04-29T07:55:38.382Z,100162.30
2023-04-29T07:56:41.048Z,100170.19
2023-04-29T07:57:43.170Z,100164.33
2023-04-29T07:58:45.623Z,100164.94
2023-04-29T07:59:52.844Z,100160.80
2023-04-29T08:00:56.121Z,100162.90
2023-04-29T08:01:59.176Z,100160.56
2023-04-29T08:03:01.717Z,100163.22
2023-04-29T08:04:04.037Z,100155.18
2023-04-29T08:05:09.106Z,100145.31
2023-04-29T08:06:12.297Z,100154.56
2023-04-29T08:07:16.747Z,100163.97
2023-04-29T08:08:18.985Z,100151.76
2023-04-29T08:09:21.305Z,100147.47
2023-04-29T08:10:23.972Z,100151.66
2023-04-29T08:11:26.938Z,100152.11
2023-04-29T08:12:29.940Z,100148.21
2023-04-29T08:13:33.354Z,100147.67
2023-04-29T08:14:38.601Z,100148.95
2023-04-29T08:15:40.769Z,100146.92
2023-04-29T08:16:43.077Z,100148.41
2023-04-29T08:17:45.594Z,100150.08
2023-04-29T08:18:52.986Z,100155.12
2023-04-29T08:19:55.312Z,100147.47
2023-04-29T08:20:59.947Z,100151.45
2023-04-29T08:22:03.316Z,100158.37
2023-04-29T08:23:05.796Z,100145.66
2023-04-29T08:24:11.325Z,100140.25
2023-04-29T08:25:13.413Z,100151.93
2023-04-29T08:26:15.818Z,100147.16
2023-04-29T08:27:19.122Z,100145.49
2023-04-29T08:28:22.025Z,100154.64
2023-04-29T08:30:38.873Z,100151.65
2023-04-29T08:31:42.797Z,100140.83
2023-04-29T08:32:44.986Z,100148.58
2023-04-29T08:33:48.034Z,100140.25
2023-04-29T08:34:50.305Z,100139.23
2023-04-29T08:35:59.743Z,100138.21
2023-04-29T08:37:03.070Z,100134.28
2023-04-29T08:38:05.969Z,100147.62
2023-04-29T08:39:08.997Z,100136.98
2023-04-29T08:40:13.376Z,100149.48
2023-04-29T08:41:19.750Z,100145.93
2023-04-29T08:43:36.512Z,100155.06
2023-04-29T08:44:40.755Z,100142.41
2023-04-29T08:45:44.030Z,100151.18
2023-04-29T08:46:47.364Z,100148.09
2023-04-29T08:47:50.436Z,100140.60
2023-04-29T08:48:55.931Z,100145.01
2023-04-29T08:51:19.248Z,100148.71
2023-04-29T08:52:21.236Z,100150.42
2023-04-29T08:53:24.008Z,100152.76
2023-04-29T08:54:27.058Z,100149.00
2023-04-29T08:55:29.470Z,100155.27
2023-04-29T08:57:50.105Z,100148.13
2023-04-29T08:58:54.502Z,100153.58
2023-04-29T08:59:59.110Z,100152.34
2023-04-29T09:01:01.845Z,100148.62
2023-04-29T09:02:06.007Z,100150.31
2023-04-29T09:03:14.812Z,100153.87
2023-04-29T09:05:08.606Z,100148.24
2023-04-29T09:06:10.996Z,100155.36
2023-04-29T09:07:16.188Z,100153.28
2023-04-29T09:08:18.798Z,100151.42
2023-04-29T09:09:21.124Z,100143.29
2023-04-29T09:10:24.285Z,100153.92
2023-04-29T09:11:27.549Z,100152.06
2023-04-29T09:12:30.407Z,100146.64
2023-04-29T09:13:32.705Z,100144.77
2023-04-29T09:14:38.035Z,100151.05
2023-04-29T09:15:40.092Z,100153.75
2023-04-29T09:16:42.318Z,100152.06
2023-04-29T09:17:49.062Z,100146.64
2023-04-29T09:18:54.344Z,100152.06
2023-04-29T09:19:58.711Z,100140.38
2023-04-29T09:21:23.979Z,100133.26
2023-04-29T09:23:46.118Z,100145.50
2023-04-29T09:24:50.688Z,100143.84
2023-04-29T09:25:56.795Z,100142.18
2023-04-29T09:27:01.019Z,100137.78
2023-04-29T09:28:15.127Z,100142.18
2023-04-29T09:29:17.758Z,100135.06
2023-04-29T09:30:20.530Z,100138.63
2023-04-29T09:31:28.861Z,100141.51
2023-04-29T09:32:31.464Z,100144.22
2023-04-29T09:33:52.961Z,100136.30
2023-04-29T09:34:59.255Z,100144.42
2023-04-29T09:36:01.664Z,100134.98
2023-04-29T09:37:05.066Z,100130.14
2023-04-29T09:38:12.295Z,100126.15
2023-04-29T09:39:18.547Z,100123.98
2023-04-29T09:41:56.591Z,100133.44
2023-04-29T09:43:01.170Z,100136.73
2023-04-29T09:44:06.775Z,100133.38
2023-04-29T09:45:09.940Z,100131.86
2023-04-29T09:46:16.098Z,100134.98
2023-04-29T09:47:23.067Z,100137.86
2023-04-29T09:48:32.212Z,100136.56
2023-04-29T09:49:40.607Z,100137.75
2023-04-29T09:50:44.155Z,100122.69
2023-04-29T09:51:54.732Z,100130.38
2023-04-29T09:53:00.716Z,100126.98
2023-04-29T09:54:11.109Z,100123.63
2023-04-29T09:55:15.895Z,100116.08
2023-04-29T09:56:22.411Z,100126.27
2023-04-29T09:57:26.473Z,100117.67
2023-04-29T09:58:32.528Z,100124.30
2023-04-29T09:59:37.794Z,100129.88
2023-04-29T10:00:42.444Z,100124.03
2023-04-29T10:01:49.265Z,100122.53
2023-04-29T10:02:54.077Z,100133.73
2023-04-29T10:03:58.905Z,100117.02
2023-04-29T10:06:24.320Z,100116.44
2023-04-29T10:08:49.243Z,100111.13
2023-04-29T10:09:55.931Z,100113.16
2023-04-29T10:11:02.629Z,100102.53
2023-04-29T10:12:06.682Z,100090.22
2023-04-29T10:13:10.184Z,100118.48
2023-04-29T10:15:38.587Z,100110.28
2023-04-29T10:17:05.902Z,100114.52
2023-04-29T10:19:39.872Z,100097.20
2023-04-29T10:20:46.756Z,100105.80
2023-04-29T10:21:51.055Z,100104.11
2023-04-29T10:22:56.208Z,100107.02
2023-04-29T10:24:02.995Z,100111.09
2023-04-29T10:25:15.948Z,100115.66
2023-04-29T10:26:20.851Z,100110.64
2023-04-29T10:27:25.532Z,100115.36
2023-04-29T10:28:34.811Z,100106.80
2023-04-29T10:29:37.974Z,100109.02
2023-04-29T10:30:47.099Z,100108.36
2023-04-29T10:31:52.373Z,100106.86
2023-04-29T10:32:56.919Z,100104.33
2023-04-29T10:34:01.441Z,100097.61
2023-04-29T10:35:11.215Z,100088.83
2023-04-29T10:36:17.788Z,100108.95
2023-04-29T10:37:20.227Z,100086.02
2023-04-29T10:38:33.872Z,100098.69
2023-04-29T10:40:14.990Z,100097.00
2023-04-29T10:42:57.190Z,100105.05
2023-04-29T10:44:04.150Z,100098.27
2023-04-29T10:45:28.794Z,100092.86
2023-04-29T10:46:31.148Z,100091.36
2023-04-29T10:47:33.557Z,100088.00
2023-04-29T10:48:36.833Z,100092.75
2023-04-29T10:49:39.026Z,100093.11
2023-04-29T10:52:03.675Z,100097.77
2023-04-29T10:53:06.386Z,100102.79
2023-04-29T10:54:11.803Z,100088.59
2023-04-29T10:55:14.571Z,100086.94
2023-04-29T10:58:53.076Z,100097.44
2023-04-29T10:59:55.241Z,100090.53
2023-04-29T11:02:09.544Z,100094.39
2023-04-29T11:03:14.257Z,100080.30
2023-04-29T11:04:18.434Z,100088.39
2023-04-29T11:05:31.743Z,100072.55
2023-04-29T11:06:38.757Z,100078.98
2023-04-29T11:07:41.095Z,100079.33
2023-04-29T11:08:43.177Z,100075.13
2023-04-29T11:09:48.882Z,100074.63
2023-04-29T11:10:56.100Z,100073.97
2023-04-29T11:12:00.915Z,100080.57
2023-04-29T11:13:28.844Z,100065.56
2023-04-29T11:14:37.719Z,100078.56
2023-04-29T11:15:41.018Z,100070.63
2023-04-29T11:18:10.618Z,100066.38
2023-04-29T11:19:16.232Z,100067.00
2023-04-29T11:20:18.548Z,100065.30
2023-04-29T11:21:22.123Z,100058.40
2023-04-29T11:22:28.016Z,100069.38
2023-04-29T11:23:31.716Z,100070.58
2023-04-29T11:24:35.743Z,100058.44
2023-04-29T11:25:39.608Z,100063.33
2023-04-29T11:26:46.535Z,100069.88
2023-04-29T11:27:49.119Z,100071.07
2023-04-29T11:28:51.459Z,100073.95
2023-04-29T11:29:55.547Z,100061.66
2023-04-29T11:32:13.851Z,100060.13
2023-04-29T11:33:16.406Z,100058.67
2023-04-29T11:34:22.191Z,100056.98
2023-04-29T11:35:24.861Z,100068.77
2023-04-29T11:36:29.084Z,100068.11
2023-04-29T11:37:33.178Z,100058.32
2023-04-29T11:38:39.049Z,100064.75
2023-04-29T11:39:41.334Z,100054.11
2023-04-29T11:40:50.459Z,100057.00
2023-04-29T11:43:19.410Z,100058.67
2023-04-29T11:44:21.736Z,100059.72
2023-04-29T11:45:23.952Z,100061.56
2023-04-29T11:46:26.855Z,100054.48
2023-04-29T11:47:30.555Z,100062.56
2023-04-29T11:48:32.883Z,100056.51
2023-04-29T11:49:35.488Z,100049.45
2023-04-29T11:50:37.687Z,100056.84
2023-04-29T11:51:40.236Z,100042.89
2023-04-29T11:52:42.438Z,100052.83
2023-04-29T11:53:45.271Z,100050.47
2023-04-29T11:54:47.588Z,100051.66
2023-04-29T11:55:50.429Z,100055.20
2023-04-29T11:56:54.236Z,100041.03
2023-04-29T11:57:56.781Z,100048.27
2023-04-29T11:58:58.725Z,100050.96
2023-04-29T12:00:01.013Z,100039.52
2023-04-29T12:01:04.826Z,100040.37
2023-04-29T12:02:12.378Z,100042.40
2023-04-29T12:03:19.411Z,100040.70
2023-04-29T12:04:22.526Z,100037.16
2023-04-29T12:05:26.728Z,100036.34
2023-04-29T12:06:29.723Z,100048.13
2023-04-29T12:07:31.941Z,100027.56
2023-04-29T12:08:34.551Z,100039.38
2023-04-29T12:09:44.168Z,100036.84
2023-04-29T12:10:50.076Z,100042.41
2023-04-29T12:11:52.656Z,100036.33
2023-04-29T12:12:54.847Z,100031.97
2023-04-29T12:13:57.327Z,100040.20
2023-04-29T12:14:59.494Z,100032.97
2023-04-29T12:16:03.145Z,100032.97
2023-04-29T12:17:05.534Z,100026.73
2023-04-29T12:18:08.689Z,100036.00
2023-04-29T12:19:11.608Z,100043.09
2023-04-29T12:20:15.297Z,100032.48
2023-04-29T12:21:17.485Z,100031.64
2023-04-29T12:22:20.050Z,100016.48
2023-04-29T12:23:24.247Z,100021.86
2023-04-29T12:24:26.457Z,100019.17
2023-04-29T12:25:28.672Z,100029.28
2023-04-29T12:26:31.346Z,100030.28
2023-04-29T12:27:37.665Z,100024.89
2023-04-29T12:28:59.396Z,100024.05
2023-04-29T12:30:32.557Z,100022.53
2023-04-29T12:31:50.387Z,100027.92
2023-04-29T12:33:17.331Z,100020.88
2023-04-29T12:34:29.016Z,100022.72
2023-04-29T12:35:31.299Z,100031.80
2023-04-29T12:36:34.474Z,100023.87
2023-04-29T12:37:37.272Z,100023.02
2023-04-29T12:38:39.639Z,100028.41
2023-04-29T12:39:41.785Z,100020.48
2023-04-29T12:40:49.061Z,100017.78
2023-04-29T12:41:59.905Z,100011.73
2023-04-29T12:43:10.122Z,100022.52
2023-04-29T12:44:12.508Z,100006.53
2023-04-29T12:45:31.389Z,100017.30
2023-04-29T12:46:36.606Z,100010.22
2023-04-29T12:47:38.944Z,100004.84
2023-04-29T12:48:41.727Z,100004.84
2023-04-29T12:49:45.619Z,100006.34
2023-04-29T12:50:51.191Z,100001.99
2023-04-29T12:51:53.408Z,99996.23
2023-04-29T12:52:55.489Z,99994.39
2023-04-29T12:54:00.250Z,99995.09
2023-04-29T12:55:02.499Z,99992.23
2023-04-29T12:56:05.691Z,99995.59
2023-04-29T12:57:07.854Z,99982.12
2023-04-29T12:58:10.038Z,99982.97
2023-04-29T12:59:12.420Z,99989.20
2023-04-29T13:00:14.744Z,99980.13